Time;durP1;ratioP1;P1;durP2;ratioP2;P2;SDS_P1;SDS_P2;PMS_P1;PMS_P2;Temp;Humidity;BMP_temperature;BMP_pressure;BME280_temperature;BME280_humidity;BME280_pressure;Samples;Min_cycle;Max_cycle;Signal;HPM_P1;HPM_P2
2021/11/08 00:00:30;;;;;;;;;13.75;12.75;;;;;;;;5001848;28;111702;-75
2021/11/08 00:03:00;;;;;;;;;20.00;18.50;;;;;;;;5001843;28;111938;-78
2021/11/08 00:05:25;;;;;;;;;17.00;13.50;;;;;;;;5004091;28;111788;-76
2021/11/08 00:07:55;;;;;;;;;16.25;15.25;;;;;;;;5001611;28;111824;-77
2021/11/08 00:10:28;;;;;;;;;18.00;15.50;;;;;;;;5000532;28;112384;-78
2021/11/08 00:12:54;;;;;;;;;18.75;16.75;;;;;;;;5000822;28;111950;-78
2021/11/08 00:15:24;;;;;;;;;18.75;15.00;;;;;;;;5000703;28;112346;-78
2021/11/08 00:18:00;;;;;;;;;19.00;17.50;;;;;;;;4999880;28;113118;-78
2021/11/08 00:20:48;;;;;;;;;22.75;15.00;;;;;;;;5001709;28;112018;-77
2021/11/08 00:23:13;;;;;;;;;16.25;16.25;;;;;;;;5000936;28;112608;-78
2021/11/08 00:25:40;;;;;;;;;19.50;16.00;;;;;;;;5003430;28;112526;-76
2021/11/08 00:28:07;;;;;;;;;16.75;12.50;;;;;;;;5001603;28;112513;-76
2021/11/08 00:30:33;;;;;;;;;16.00;15.00;;;;;;;;4999978;28;113032;-76
2021/11/08 00:32:59;;;;;;;;;20.25;13.50;;;;;;;;5001069;28;112130;-77
2021/11/08 00:35:24;;;;;;;;;20.50;13.75;;;;;;;;5000477;28;112151;-75
2021/11/08 00:37:50;;;;;;;;;16.50;14.25;;;;;;;;5000369;28;112550;-78
2021/11/08 00:40:16;;;;;;;;;12.00;10.50;;;;;;;;5001242;28;111795;-78
2021/11/08 00:42:41;;;;;;;;;11.75;11.75;;;;;;;;4999590;28;113205;-78
2021/11/08 00:45:07;;;;;;;;;8.50;8.50;;;;;;;;5000056;28;112648;-78
2021/11/08 00:47:34;;;;;;;;;8.75;7.75;;;;;;;;5005648;28;112125;-81
2021/11/08 00:50:00;;;;;;;;;11.00;11.00;;;;;;;;5001315;28;112516;-77
2021/11/08 00:52:26;;;;;;;;;11.75;11.00;;;;;;;;5001089;28;112075;-78
2021/11/08 00:54:51;;;;;;;;;12.75;10.50;;;;;;;;5001177;28;112295;-77
2021/11/08 00:57:20;;;;;;;;;15.50;9.00;;;;;;;;4999736;28;112943;-79
2021/11/08 00:59:46;;;;;;;;;12.75;10.00;;;;;;;;5002040;28;112131;-77
2021/11/08 01:02:12;;;;;;;;;14.25;10.50;;;;;;;;5000864;28;112261;-78
2021/11/08 01:04:38;;;;;;;;;10.00;9.00;;;;;;;;4999347;28;113143;-78
2021/11/08 01:07:03;;;;;;;;;8.00;8.00;;;;;;;;5016474;28;112850;-79
2021/11/08 01:09:30;;;;;;;;;12.00;10.00;;;;;;;;5004624;28;112499;-79
2021/11/08 01:11:56;;;;;;;;;10.50;6.00;;;;;;;;5000014;28;111716;-78
2021/11/08 01:14:22;;;;;;;;;14.50;8.00;;;;;;;;4999972;28;114977;-78
2021/11/08 01:16:54;;;;;;;;;10.25;6.50;;;;;;;;5000043;28;112925;-78
2021/11/08 01:19:20;;;;;;;;;7.50;7.00;;;;;;;;5001533;28;112121;-79
2021/11/08 01:21:45;;;;;;;;;11.00;7.25;;;;;;;;5001875;28;112081;-79
2021/11/08 01:24:11;;;;;;;;;10.50;7.50;;;;;;;;5000192;28;112336;-78
2021/11/08 01:26:36;;;;;;;;;12.00;10.00;;;;;;;;5000897;28;112156;-78
2021/11/08 01:29:02;;;;;;;;;14.00;11.00;;;;;;;;5000131;28;112720;-78
2021/11/08 01:31:27;;;;;;;;;10.00;10.00;;;;;;;;5002833;28;112513;-78
2021/11/08 01:33:53;;;;;;;;;12.50;8.75;;;;;;;;5000118;28;112160;-79
2021/11/08 01:36:24;;;;;;;;;8.00;8.00;;;;;;;;4998970;28;114923;-77
2021/11/08 01:38:50;;;;;;;;;9.50;8.75;;;;;;;;5001224;28;112052;-77
2021/11/08 01:41:18;;;;;;;;;9.50;8.75;;;;;;;;5000973;28;112275;-77
2021/11/08 01:43:43;;;;;;;;;8.75;8.75;;;;;;;;4999626;28;113116;-77
2021/11/08 01:46:09;;;;;;;;;8.50;8.50;;;;;;;;5000487;28;112074;-77
2021/11/08 01:48:35;;;;;;;;;9.00;9.00;;;;;;;;5001402;28;111915;-77
2021/11/08 01:51:00;;;;;;;;;8.00;8.00;;;;;;;;5000019;28;112470;-78
2021/11/08 01:53:26;;;;;;;;;11.00;11.00;;;;;;;;5005036;28;111743;-73
2021/11/08 01:55:52;;;;;;;;;12.25;8.75;;;;;;;;4999125;28;112901;-80
2021/11/08 01:58:21;;;;;;;;;14.25;8.75;;;;;;;;5000849;28;111901;-78
2021/11/08 02:00:48;;;;;;;;;9.50;9.25;;;;;;;;5000103;28;112418;-77
2021/11/08 02:03:14;;;;;;;;;8.00;7.00;;;;;;;;4999948;28;112516;-77
2021/11/08 02:05:40;;;;;;;;;7.50;7.00;;;;;;;;5000562;28;111798;-77
2021/11/08 02:08:05;;;;;;;;;7.50;7.50;;;;;;;;4999987;28;112007;-79
2021/11/08 02:10:30;;;;;;;;;10.00;8.00;;;;;;;;4998659;28;112995;-78
2021/11/08 02:12:57;;;;;;;;;11.75;7.75;;;;;;;;5003126;28;113075;-80
2021/11/08 02:15:22;;;;;;;;;9.25;7.50;;;;;;;;4999015;28;112703;-78
2021/11/08 02:17:48;;;;;;;;;9.00;7.50;;;;;;;;5008630;27;111914;-78
2021/11/08 02:20:16;;;;;;;;;8.00;7.00;;;;;;;;5013527;28;114172;-79
2021/11/08 02:22:42;;;;;;;;;8.00;8.00;;;;;;;;5007494;28;114983;-79
2021/11/08 02:25:09;;;;;;;;;10.75;7.25;;;;;;;;5009456;27;111925;-79
2021/11/08 02:27:36;;;;;;;;;8.25;8.00;;;;;;;;5010809;28;112091;-77
2021/11/08 02:30:02;;;;;;;;;11.25;8.00;;;;;;;;5006934;28;112499;-78
2021/11/08 02:32:29;;;;;;;;;8.00;7.75;;;;;;;;5009652;28;112194;-76
2021/11/08 02:34:54;;;;;;;;;8.00;7.75;;;;;;;;5011427;28;113534;-77
2021/11/08 02:37:19;;;;;;;;;10.75;7.00;;;;;;;;5008708;27;112048;-77
2021/11/08 02:39:47;;;;;;;;;13.75;7.00;;;;;;;;5019263;27;114594;-76
2021/11/08 02:42:13;;;;;;;;;8.00;7.00;;;;;;;;5013136;27;112787;-76
2021/11/08 02:44:38;;;;;;;;;9.50;7.00;;;;;;;;5008518;27;112131;-77
2021/11/08 02:47:04;;;;;;;;;5.75;4.50;;;;;;;;5002888;28;111824;-76
2021/11/08 02:49:30;;;;;;;;;11.00;9.00;;;;;;;;5002148;28;112694;-78
2021/11/08 02:52:02;;;;;;;;;11.00;8.00;;;;;;;;5003768;28;111678;-78
2021/11/08 02:54:32;;;;;;;;;11.00;10.00;;;;;;;;5003226;28;112359;-78
2021/11/08 02:56:58;;;;;;;;;13.00;8.00;;;;;;;;5005984;28;112421;-78
2021/11/08 02:59:26;;;;;;;;;10.75;8.00;;;;;;;;5002796;28;111929;-79
2021/11/08 03:01:53;;;;;;;;;8.00;7.00;;;;;;;;5001796;28;112651;-79
2021/11/08 03:04:23;;;;;;;;;11.25;8.75;;;;;;;;5002776;28;111730;-77
2021/11/08 03:06:49;;;;;;;;;10.50;10.00;;;;;;;;5002828;28;112380;-79
2021/11/08 03:09:20;;;;;;;;;8.25;8.00;;;;;;;;5001036;28;113039;-79
2021/11/08 03:11:45;;;;;;;;;11.00;8.25;;;;;;;;5002731;28;111868;-77
2021/11/08 03:14:15;;;;;;;;;7.25;7.00;;;;;;;;5003243;28;112402;-80
2021/11/08 03:16:49;;;;;;;;;10.25;7.75;;;;;;;;5002588;28;112428;-79
2021/11/08 03:19:26;;;;;;;;;12.00;7.50;;;;;;;;5006421;28;112207;-78
2021/11/08 03:21:55;;;;;;;;;6.50;6.50;;;;;;;;5001891;28;112395;-77
2021/11/08 03:24:37;;;;;;;;;10.25;10.25;;;;;;;;5002496;28;112105;-77
2021/11/08 03:27:09;;;;;;;;;10.00;10.00;;;;;;;;5001979;28;112021;-78
2021/11/08 03:29:34;;;;;;;;;7.50;7.00;;;;;;;;5000572;28;112574;-78
2021/11/08 03:32:00;;;;;;;;;7.50;7.00;;;;;;;;5003039;28;111811;-80
2021/11/08 03:34:28;;;;;;;;;9.00;7.75;;;;;;;;5002899;28;112408;-78
2021/11/08 03:36:54;;;;;;;;;7.50;7.50;;;;;;;;5000930;28;112603;-79
2021/11/08 03:39:19;;;;;;;;;11.00;10.00;;;;;;;;5002391;28;112976;-79
2021/11/08 03:41:45;;;;;;;;;12.75;12.75;;;;;;;;5004826;28;111666;-79
2021/11/08 03:44:10;;;;;;;;;10.00;10.00;;;;;;;;5000922;28;112332;-80
2021/11/08 03:46:35;;;;;;;;;6.50;5.00;;;;;;;;5002247;28;111937;-79
2021/11/08 03:49:00;;;;;;;;;11.50;11.50;;;;;;;;5000889;28;111858;-80
2021/11/08 03:51:26;;;;;;;;;13.50;8.00;;;;;;;;5002048;28;111613;-76
2021/11/08 03:53:51;;;;;;;;;3.00;1.25;;;;;;;;5002001;28;112380;-77
2021/11/08 03:56:16;;;;;;;;;17.75;10.00;;;;;;;;5001102;28;112377;-78
2021/11/08 03:58:42;;;;;;;;;10.50;9.00;;;;;;;;5001484;28;111756;-77
2021/11/08 04:01:07;;;;;;;;;6.50;4.50;;;;;;;;5001706;28;111804;-77
2021/11/08 04:03:33;;;;;;;;;10.00;8.00;;;;;;;;5004539;28;112449;-77
2021/11/08 04:05:58;;;;;;;;;7.00;7.00;;;;;;;;5001655;27;112322;-77
2021/11/08 04:08:25;;;;;;;;;11.25;7.75;;;;;;;;5000401;28;112656;-76
2021/11/08 04:10:53;;;;;;;;;8.50;7.75;;;;;;;;5001729;28;112006;-77
2021/11/08 04:13:20;;;;;;;;;11.00;10.00;;;;;;;;5001199;28;112514;-75
2021/11/08 04:15:47;;;;;;;;;10.25;10.00;;;;;;;;5000362;28;113046;-77
2021/11/08 04:18:18;;;;;;;;;8.25;7.00;;;;;;;;5001302;28;111715;-77
2021/11/08 04:20:45;;;;;;;;;13.00;7.00;;;;;;;;5001732;28;111916;-77
2021/11/08 04:23:11;;;;;;;;;5.50;5.50;;;;;;;;5004976;28;112360;-78
2021/11/08 04:25:36;;;;;;;;;4.25;4.25;;;;;;;;5001443;28;112482;-78
2021/11/08 04:28:02;;;;;;;;;7.00;3.00;;;;;;;;5000375;28;112365;-78
2021/11/08 04:30:30;;;;;;;;;5.50;5.50;;;;;;;;5001843;28;111946;-76
2021/11/08 04:38:15;;;;;;;;;10.50;8.50;;;;;;;;5001118;28;111736;-77
2021/11/08 04:41:04;;;;;;;;;7.75;7.75;;;;;;;;5000970;28;113781;-76
2021/11/08 04:57:22;;;;;;;;;5.75;5.00;;;;;;;;5000691;28;112218;-78
2021/11/08 05:24:27;;;;;;;;;12.00;8.00;;;;;;;;5000837;28;112056;-78
2021/11/08 05:32:14;;;;;;;;;8.00;5.50;;;;;;;;5000717;28;111940;-78
2021/11/08 05:34:39;;;;;;;;;7.00;4.25;;;;;;;;5003684;28;112398;-77
2021/11/08 05:37:08;;;;;;;;;7.25;7.00;;;;;;;;5000950;28;112413;-78
2021/11/08 05:39:34;;;;;;;;;4.25;4.25;;;;;;;;4999238;28;113069;-77
2021/11/08 05:42:02;;;;;;;;;9.50;7.00;;;;;;;;5000736;28;111780;-78
2021/11/08 05:44:27;;;;;;;;;8.00;6.50;;;;;;;;5000610;28;112245;-77
2021/11/08 05:46:53;;;;;;;;;4.75;4.75;;;;;;;;4999100;28;112950;-78
2021/11/08 05:49:18;;;;;;;;;11.25;6.50;;;;;;;;5000326;28;111743;-77
2021/11/08 05:51:43;;;;;;;;;9.50;8.50;;;;;;;;4999814;28;112390;-77
2021/11/08 05:54:09;;;;;;;;;9.00;9.00;;;;;;;;4999080;28;112318;-76
2021/11/08 05:56:59;;;;;;;;;5.00;5.00;;;;;;;;5006534;28;112105;-76
2021/11/08 06:50:52;;;;;;;;;11.00;11.00;;;;;;;;5020293;28;112534;-75
2021/11/08 06:53:19;;;;;;;;;13.00;10.75;;;;;;;;5021438;28;111998;-76
2021/11/08 06:55:47;;;;;;;;;8.00;8.00;;;;;;;;5009221;28;112074;-75
2021/11/08 06:58:17;;;;;;;;;6.50;5.00;;;;;;;;5001869;28;114226;-77
2021/11/08 07:00:42;;;;;;;;;8.50;7.25;;;;;;;;5003554;28;112047;-77
2021/11/08 07:03:08;;;;;;;;;8.50;7.00;;;;;;;;5003076;28;112132;-74
2021/11/08 07:05:33;;;;;;;;;9.50;7.75;;;;;;;;5005591;28;112997;-76
2021/11/08 07:07:58;;;;;;;;;11.00;8.00;;;;;;;;5003122;28;112094;-76
2021/11/08 07:10:23;;;;;;;;;10.25;10.25;;;;;;;;5002184;28;112367;-72
2021/11/08 07:12:50;;;;;;;;;10.00;7.00;;;;;;;;5017509;28;111960;-74
2021/11/08 07:15:16;;;;;;;;;9.50;9.50;;;;;;;;5020659;27;113394;-74
2021/11/08 07:17:41;;;;;;;;;11.75;11.00;;;;;;;;5019049;27;112398;-76
2021/11/08 07:20:07;;;;;;;;;10.50;10.25;;;;;;;;5020228;28;112314;-74
2021/11/08 07:22:32;;;;;;;;;12.00;9.75;;;;;;;;5021783;27;113003;-75
2021/11/08 07:24:57;;;;;;;;;11.75;9.50;;;;;;;;5020421;27;112885;-75
2021/11/08 07:27:23;;;;;;;;;10.00;10.00;;;;;;;;5026806;27;111849;-76
2021/11/08 07:29:48;;;;;;;;;12.50;11.50;;;;;;;;5021692;28;112965;-76
2021/11/08 07:32:13;;;;;;;;;10.00;9.00;;;;;;;;5022327;27;112902;-75
2021/11/08 07:34:39;;;;;;;;;13.50;11.00;;;;;;;;5022517;28;112105;-75
2021/11/08 07:37:04;;;;;;;;;16.50;11.50;;;;;;;;5021387;28;112335;-75
2021/11/08 07:39:30;;;;;;;;;12.75;12.75;;;;;;;;5022024;28;111878;-75
2021/11/08 07:41:55;;;;;;;;;13.00;11.75;;;;;;;;5021486;27;112031;-75
2021/11/08 07:44:20;;;;;;;;;9.25;9.00;;;;;;;;5021060;28;112539;-75
2021/11/08 07:46:46;;;;;;;;;10.75;10.00;;;;;;;;5022090;27;112085;-76
2021/11/08 07:49:11;;;;;;;;;12.25;11.25;;;;;;;;5024400;28;111848;-75
2021/11/08 07:51:37;;;;;;;;;10.00;10.00;;;;;;;;5021310;27;112194;-76
2021/11/08 07:54:02;;;;;;;;;13.00;11.75;;;;;;;;5021833;28;111920;-73
2021/11/08 07:56:27;;;;;;;;;11.50;10.00;;;;;;;;5020256;27;112367;-74
2021/11/08 07:58:53;;;;;;;;;11.25;11.25;;;;;;;;5021268;28;111840;-73
2021/11/08 08:01:18;;;;;;;;;12.00;10.00;;;;;;;;5021491;27;113277;-73
2021/11/08 08:03:46;;;;;;;;;13.75;10.75;;;;;;;;5021087;28;113061;-73
2021/11/08 08:06:12;;;;;;;;;14.25;11.00;;;;;;;;5019878;28;111975;-74
2021/11/08 08:08:37;;;;;;;;;18.00;13.75;;;;;;;;5019924;28;114553;-74
2021/11/08 08:11:04;;;;;;;;;17.00;17.00;;;;;;;;5023767;28;113062;-74
2021/11/08 08:13:30;;;;;;;;;18.00;15.75;;;;;;;;5021822;28;112043;-73
2021/11/08 08:16:00;;;;;;;;;15.00;12.00;;;;;;;;5020777;28;112346;-73
2021/11/08 08:18:26;;;;;;;;;14.50;13.00;;;;;;;;5021736;27;112029;-73
2021/11/08 08:20:52;;;;;;;;;14.00;13.00;;;;;;;;5020160;27;115784;-74
2021/11/08 08:23:17;;;;;;;;;16.00;16.00;;;;;;;;5020327;27;113799;-75
2021/11/08 08:25:44;;;;;;;;;16.25;16.00;;;;;;;;5021614;27;111842;-76
2021/11/08 08:28:09;;;;;;;;;16.25;14.75;;;;;;;;5020958;28;112110;-76
2021/11/08 08:30:34;;;;;;;;;10.25;10.25;;;;;;;;5016222;27;117715;-74
2021/11/08 08:33:00;;;;;;;;;15.75;12.75;;;;;;;;5025288;28;112006;-76
2021/11/08 08:35:25;;;;;;;;;13.75;12.75;;;;;;;;5019162;27;112427;-75
2021/11/08 08:37:50;;;;;;;;;16.00;10.50;;;;;;;;5020967;28;111691;-78
2021/11/08 08:40:16;;;;;;;;;11.00;11.00;;;;;;;;5020634;28;112522;-78
2021/11/08 08:42:41;;;;;;;;;16.00;12.00;;;;;;;;5019963;27;112532;-81
2021/11/08 08:45:08;;;;;;;;;16.25;12.75;;;;;;;;5017440;28;112442;-77
2021/11/08 08:47:33;;;;;;;;;14.25;12.75;;;;;;;;5021017;28;112113;-83
2021/11/08 08:49:58;;;;;;;;;12.75;9.00;;;;;;;;5020013;27;113017;-74
2021/11/08 08:52:24;;;;;;;;;15.25;15.25;;;;;;;;5025097;27;112044;-76
2021/11/08 08:54:49;;;;;;;;;12.00;11.50;;;;;;;;5020078;27;112631;-81
2021/11/08 08:57:15;;;;;;;;;7.75;5.50;;;;;;;;5021889;27;112408;-80
2021/11/08 08:59:41;;;;;;;;;14.25;13.00;;;;;;;;5021391;27;112936;-76
2021/11/08 09:02:08;;;;;;;;;15.00;11.50;;;;;;;;5019499;27;115493;-73
2021/11/08 09:04:33;;;;;;;;;15.50;12.50;;;;;;;;5021234;27;111797;-75
2021/11/08 09:06:58;;;;;;;;;16.25;13.25;;;;;;;;5021331;28;112457;-76
2021/11/08 09:09:23;;;;;;;;;18.75;16.75;;;;;;;;5020252;27;112836;-75
2021/11/08 09:11:49;;;;;;;;;17.00;17.00;;;;;;;;5020999;27;112127;-74
2021/11/08 09:14:14;;;;;;;;;17.75;16.75;;;;;;;;5023931;27;111821;-75
2021/11/08 09:16:40;;;;;;;;;17.50;17.50;;;;;;;;5020876;28;111787;-74
2021/11/08 09:19:06;;;;;;;;;17.75;17.75;;;;;;;;5020429;27;111884;-74
2021/11/08 09:21:32;;;;;;;;;20.75;16.75;;;;;;;;5019446;27;113208;-74
2021/11/08 09:23:59;;;;;;;;;18.75;15.00;;;;;;;;5020265;27;112019;-74
2021/11/08 09:26:26;;;;;;;;;23.50;18.00;;;;;;;;5020770;27;113074;-74
2021/11/08 09:28:52;;;;;;;;;20.00;17.50;;;;;;;;5019503;27;112693;-73
2021/11/08 09:31:20;;;;;;;;;20.75;14.00;;;;;;;;5019985;27;111861;-77
2021/11/08 09:33:45;;;;;;;;;18.25;18.00;;;;;;;;5019465;28;115038;-79
2021/11/08 09:36:12;;;;;;;;;21.25;19.00;;;;;;;;5023447;27;112701;-82
2021/11/08 09:38:39;;;;;;;;;17.00;15.25;;;;;;;;5020477;27;111755;-82
2021/11/08 09:41:10;;;;;;;;;19.50;17.25;;;;;;;;5019517;28;112824;-77
2021/11/08 09:43:35;;;;;;;;;17.75;14.00;;;;;;;;5020894;28;111774;-81
2021/11/08 09:46:01;;;;;;;;;13.50;13.50;;;;;;;;5020712;28;111990;-80
2021/11/08 09:48:28;;;;;;;;;17.75;14.25;;;;;;;;5019567;27;112447;-80
2021/11/08 09:50:54;;;;;;;;;17.25;15.75;;;;;;;;5020199;28;112202;-83
2021/11/08 09:53:19;;;;;;;;;19.25;15.50;;;;;;;;5020234;27;112101;-85
2021/11/08 09:55:46;;;;;;;;;17.75;14.00;;;;;;;;5018833;27;112872;-86
2021/11/08 09:58:12;;;;;;;;;17.00;17.00;;;;;;;;5023251;28;111936;-77
2021/11/08 10:00:37;;;;;;;;;15.00;14.00;;;;;;;;5019380;27;113061;-76
2021/11/08 10:03:04;;;;;;;;;22.25;16.00;;;;;;;;5020254;28;111713;-76
2021/11/08 10:05:34;;;;;;;;;18.25;17.00;;;;;;;;5019797;28;112622;-76
2021/11/08 10:08:00;;;;;;;;;18.25;16.50;;;;;;;;5019070;27;112540;-75
2021/11/08 10:10:26;;;;;;;;;21.00;17.75;;;;;;;;5019825;27;112159;-82
2021/11/08 10:25:47;;;;;;;;;18.00;14.75;;;;;;;;5503216;22;114579;-80
2021/11/08 10:28:18;;;;;;;;;15.00;15.00;;;;;;;;4988763;28;112409;-75
2021/11/08 10:30:48;;;;;;;;;18.50;14.25;;;;;;;;4999487;28;111743;-75
2021/11/08 10:33:19;;;;;;;;;20.25;18.75;;;;;;;;4999780;28;112405;-72
2021/11/08 10:35:47;;;;;;;;;13.50;12.50;;;;;;;;4998326;28;112389;-73
2021/11/08 10:38:18;;;;;;;;;11.00;11.00;;;;;;;;4999601;28;112207;-71
2021/11/08 10:40:51;;;;;;;;;14.00;14.00;;;;;;;;4998976;28;112151;-76
2021/11/08 10:43:28;;;;;;;;;10.00;9.00;;;;;;;;5002470;28;112680;-77
2021/11/08 10:45:54;;;;;;;;;9.25;9.00;;;;;;;;5000016;28;111977;-75
2021/11/08 10:48:21;;;;;;;;;4.00;3.00;;;;;;;;4998336;28;113091;-74
2021/11/08 10:50:47;;;;;;;;;6.00;4.75;;;;;;;;5000213;28;111886;-76
2021/11/08 10:53:13;;;;;;;;;5.75;5.00;;;;;;;;4999894;28;112173;-76
2021/11/08 10:55:38;;;;;;;;;3.33;3.00;;;;;;;;4998118;28;112608;-74
2021/11/08 10:58:11;;;;;;;;;4.33;2.00;;;;;;;;4997544;28;112161;-74
2021/11/08 11:00:54;;;;;;;;;2.00;2.00;;;;;;;;5003696;28;112525;-75
2021/11/08 11:03:20;;;;;;;;;3.00;3.00;;;;;;;;5005371;28;113115;-73
2021/11/08 11:05:46;;;;;;;;;2.00;2.00;;;;;;;;5003592;28;111848;-76
2021/11/08 11:08:15;;;;;;;;;2.67;1.00;;;;;;;;5002564;28;112512;-73
2021/11/08 11:10:42;;;;;;;;;2.67;2.00;;;;;;;;5002422;28;112081;-73
2021/11/08 11:13:08;;;;;;;;;2.00;1.00;;;;;;;;5003448;28;112098;-73
2021/11/08 11:15:39;;;;;;;;;1.00;1.00;;;;;;;;5001733;28;112503;-73
2021/11/08 11:18:05;;;;;;;;;1.00;1.00;;;;;;;;5002786;28;112280;-72
2021/11/08 11:20:34;;;;;;;;;3.00;2.00;;;;;;;;5001357;28;115021;-73
2021/11/08 11:23:08;;;;;;;;;1.33;1.33;;;;;;;;5001608;28;112460;-73
2021/11/08 11:25:36;;;;;;;;;1.00;1.00;;;;;;;;5005611;28;111872;-73
2021/11/08 11:28:03;;;;;;;;;1.50;1.50;;;;;;;;5001119;28;112534;-73
2021/11/08 11:30:31;;;;;;;;;3.00;2.25;;;;;;;;5001349;28;111877;-73
2021/11/08 11:33:02;;;;;;;;;1.75;1.75;;;;;;;;5001323;28;112489;-73
2021/11/08 11:35:29;;;;;;;;;2.50;2.00;;;;;;;;5002365;28;112553;-75
2021/11/08 11:37:59;;;;;;;;;1.00;1.00;;;;;;;;5003003;28;111805;-74
2021/11/08 11:40:29;;;;;;;;;1.50;1.50;;;;;;;;5001253;28;112640;-73
2021/11/08 11:42:56;;;;;;;;;2.00;1.00;;;;;;;;5000993;28;113695;-75
2021/11/08 11:45:22;;;;;;;;;3.00;1.00;;;;;;;;5000667;28;112076;-73
2021/11/08 11:47:56;;;;;;;;;2.25;2.00;;;;;;;;5005284;28;112348;-75
2021/11/08 11:50:22;;;;;;;;;3.25;2.75;;;;;;;;5002320;28;112556;-76
2021/11/08 11:52:47;;;;;;;;;3.00;3.00;;;;;;;;5002186;28;112051;-74
2021/11/08 11:55:13;;;;;;;;;2.50;2.50;;;;;;;;5000927;28;112601;-73
2021/11/08 11:57:38;;;;;;;;;2.50;2.00;;;;;;;;5001955;28;111784;-76
2021/11/08 12:00:05;;;;;;;;;2.00;2.00;;;;;;;;5002012;28;111931;-73
2021/11/08 12:02:30;;;;;;;;;1.00;1.00;;;;;;;;4997131;28;116034;-77
2021/11/08 12:04:55;;;;;;;;;1.00;1.00;;;;;;;;5002977;28;111774;-78
2021/11/08 12:07:20;;;;;;;;;1.00;0.00;;;;;;;;5002682;28;111845;-76
2021/11/08 12:09:46;;;;;;;;;2.50;2.00;;;;;;;;5001475;28;112644;-78
2021/11/08 12:12:21;;;;;;;;;1.00;1.00;;;;;;;;4994706;28;112377;-75
2021/11/08 12:14:54;;;;;;;;;1.00;1.00;;;;;;;;4981302;28;112763;-77
2021/11/08 12:17:20;;;;;;;;;2.00;2.00;;;;;;;;4980050;28;111897;-76
2021/11/08 12:19:46;;;;;;;;;1.25;1.25;;;;;;;;4981653;28;112471;-76
2021/11/08 12:22:14;;;;;;;;;0.25;0.25;;;;;;;;4980901;28;114470;-76
2021/11/08 12:24:41;;;;;;;;;0.75;0.75;;;;;;;;4981371;28;112159;-78
2021/11/08 12:27:10;;;;;;;;;1.25;1.00;;;;;;;;4980282;28;114835;-76
2021/11/08 12:29:47;;;;;;;;;0.25;0.25;;;;;;;;4981369;28;113859;-77
2021/11/08 12:32:14;;;;;;;;;2.00;1.00;;;;;;;;4983420;28;112068;-78
2021/11/08 12:34:40;;;;;;;;;0.25;0.00;;;;;;;;4978889;28;112496;-77
2021/11/08 12:37:06;;;;;;;;;0.00;0.00;;;;;;;;4981712;28;112308;-80
2021/11/08 12:39:32;;;;;;;;;3.00;0.75;;;;;;;;4982299;28;111722;-79
2021/11/08 12:42:00;;;;;;;;;0.75;0.00;;;;;;;;4980731;28;112980;-78
2021/11/08 12:44:32;;;;;;;;;0.00;0.00;;;;;;;;4981987;28;111819;-78
2021/11/08 12:47:01;;;;;;;;;0.00;0.00;;;;;;;;4983800;28;112671;-79
2021/11/08 12:49:34;;;;;;;;;0.00;0.00;;;;;;;;5000384;28;112680;-78
2021/11/08 12:52:00;;;;;;;;;1.00;0.50;;;;;;;;5005211;28;111956;-78
2021/11/08 12:54:26;;;;;;;;;1.00;0.75;;;;;;;;4998444;28;115275;-79
2021/11/08 12:56:52;;;;;;;;;1.00;0.00;;;;;;;;4959037;28;112341;-77
2021/11/08 12:59:25;;;;;;;;;0.00;0.00;;;;;;;;4979643;28;112082;-77
2021/11/08 13:01:50;;;;;;;;;0.00;0.00;;;;;;;;4980297;28;112524;-79
2021/11/08 13:04:17;;;;;;;;;1.50;0.50;;;;;;;;4981408;28;111905;-79
2021/11/08 13:06:44;;;;;;;;;0.00;0.00;;;;;;;;4981043;28;112940;-79
2021/11/08 13:09:14;;;;;;;;;1.75;0.00;;;;;;;;4980102;28;113286;-82
2021/11/08 13:11:50;;;;;;;;;1.00;0.00;;;;;;;;4978791;28;112025;-80
2021/11/08 13:14:21;;;;;;;;;0.00;0.00;;;;;;;;4982861;28;112090;-80
2021/11/08 13:16:48;;;;;;;;;0.00;0.00;;;;;;;;4979997;28;111930;-81
2021/11/08 13:19:15;;;;;;;;;0.00;0.00;;;;;;;;4979101;28;112421;-81
2021/11/08 13:21:41;;;;;;;;;0.00;0.00;;;;;;;;4977842;28;113489;-81
2021/11/08 13:24:07;;;;;;;;;1.00;0.00;;;;;;;;4964517;28;113083;-80
2021/11/08 13:26:33;;;;;;;;;1.50;1.00;;;;;;;;4917221;28;112488;-83
2021/11/08 13:29:00;;;;;;;;;1.00;1.00;;;;;;;;4967703;28;113530;-77
2021/11/08 13:31:25;;;;;;;;;0.25;0.25;;;;;;;;4977754;28;112397;-78
2021/11/08 13:33:52;;;;;;;;;1.00;1.00;;;;;;;;4938871;28;112106;-77
2021/11/08 13:36:18;;;;;;;;;1.00;1.00;;;;;;;;4984456;28;112527;-77
2021/11/08 13:38:45;;;;;;;;;0.00;0.00;;;;;;;;4968171;28;113319;-78
2021/11/08 13:41:18;;;;;;;;;0.00;0.00;;;;;;;;4958891;28;116193;-79
2021/11/08 13:43:45;;;;;;;;;0.00;0.00;;;;;;;;4963422;28;111949;-79
2021/11/08 13:46:13;;;;;;;;;1.75;0.25;;;;;;;;4960708;28;113654;-79
2021/11/08 13:48:42;;;;;;;;;0.25;0.25;;;;;;;;4958576;28;112406;-78
2021/11/08 13:51:17;;;;;;;;;0.75;0.75;;;;;;;;4960157;28;111953;-78
2021/11/08 13:53:43;;;;;;;;;0.00;0.00;;;;;;;;4960138;28;111956;-80
2021/11/08 13:56:11;;;;;;;;;0.75;0.75;;;;;;;;4961147;28;113099;-84
2021/11/08 13:58:45;;;;;;;;;0.75;0.00;;;;;;;;4964804;28;111815;-78
2021/11/08 14:01:10;;;;;;;;;0.00;0.00;;;;;;;;4960181;28;113084;-82
2021/11/08 14:03:46;;;;;;;;;0.50;0.50;;;;;;;;4960868;28;111677;-78
2021/11/08 14:06:14;;;;;;;;;1.00;0.50;;;;;;;;4961494;28;112448;-81
2021/11/08 14:08:48;;;;;;;;;1.25;1.00;;;;;;;;4959803;28;115448;-80
2021/11/08 14:11:23;;;;;;;;;0.25;0.25;;;;;;;;4961739;28;112022;-81
2021/11/08 14:13:52;;;;;;;;;0.00;0.00;;;;;;;;4960833;28;111972;-81
2021/11/08 14:16:18;;;;;;;;;1.00;1.00;;;;;;;;4960057;28;112605;-81
2021/11/08 14:18:49;;;;;;;;;2.00;0.00;;;;;;;;4958839;28;112566;-79
2021/11/08 14:21:15;;;;;;;;;0.00;0.00;;;;;;;;4965213;28;112181;-81
2021/11/08 14:23:42;;;;;;;;;0.00;0.00;;;;;;;;4961999;28;111909;-81
2021/11/08 14:26:10;;;;;;;;;2.75;0.00;;;;;;;;4972515;28;113375;-79
2021/11/08 14:28:35;;;;;;;;;0.25;0.00;;;;;;;;4980431;28;112623;-80
2021/11/08 14:31:00;;;;;;;;;0.00;0.00;;;;;;;;4980360;28;112292;-77
2021/11/08 14:33:26;;;;;;;;;1.00;0.00;;;;;;;;4981242;28;111979;-78
2021/11/08 14:35:51;;;;;;;;;1.50;1.00;;;;;;;;4983742;28;112993;-79
2021/11/08 14:38:36;;;;;;;;;2.00;0.00;;;;;;;;4983730;28;112034;-80
2021/11/08 14:41:08;;;;;;;;;0.00;0.00;;;;;;;;4984924;28;112432;-75
2021/11/08 14:43:34;;;;;;;;;0.00;0.00;;;;;;;;4985842;28;113694;-75
2021/11/08 14:46:04;;;;;;;;;0.00;0.00;;;;;;;;4984127;28;111811;-80
2021/11/08 14:48:31;;;;;;;;;0.00;0.00;;;;;;;;4983560;28;113744;-80
2021/11/08 14:51:06;;;;;;;;;0.00;0.00;;;;;;;;4985106;28;111975;-78
2021/11/08 14:53:35;;;;;;;;;0.00;0.00;;;;;;;;4985474;28;112631;-77
2021/11/08 14:56:01;;;;;;;;;0.00;0.00;;;;;;;;4983613;28;113720;-79
2021/11/08 14:58:26;;;;;;;;;0.00;0.00;;;;;;;;4983332;28;112107;-81
2021/11/08 15:00:51;;;;;;;;;0.00;0.00;;;;;;;;4982505;28;115544;-79
2021/11/08 15:03:18;;;;;;;;;0.00;0.00;;;;;;;;4985121;28;112315;-79
2021/11/08 15:05:45;;;;;;;;;0.00;0.00;;;;;;;;4983125;28;113412;-80
2021/11/08 15:08:14;;;;;;;;;0.50;0.00;;;;;;;;4982862;28;113647;-80
2021/11/08 15:10:41;;;;;;;;;0.00;0.00;;;;;;;;4983135;28;112623;-79
2021/11/08 15:13:08;;;;;;;;;0.00;0.00;;;;;;;;4982731;28;113101;-80
2021/11/08 15:15:41;;;;;;;;;0.00;0.00;;;;;;;;4982127;28;112953;-80
2021/11/08 15:18:10;;;;;;;;;0.00;0.00;;;;;;;;4982826;28;112128;-79
2021/11/08 15:20:41;;;;;;;;;0.25;0.00;;;;;;;;4983707;28;112328;-80
2021/11/08 15:23:08;;;;;;;;;0.00;0.00;;;;;;;;4983559;28;112010;-76
2021/11/08 15:25:33;;;;;;;;;0.00;0.00;;;;;;;;4985995;28;112421;-78
2021/11/08 15:28:01;;;;;;;;;0.00;0.00;;;;;;;;4982274;28;112878;-79
2021/11/08 15:30:28;;;;;;;;;0.00;0.00;;;;;;;;4980696;28;112090;-75
2021/11/08 15:33:02;;;;;;;;;0.00;0.00;;;;;;;;4982894;28;113266;-75
2021/11/08 15:35:35;;;;;;;;;0.00;0.00;;;;;;;;4982051;28;112898;-71
2021/11/08 15:38:01;;;;;;;;;0.00;0.00;;;;;;;;4982363;28;111882;-70
2021/11/08 15:40:26;;;;;;;;;1.00;0.00;;;;;;;;4982349;28;112884;-72
2021/11/08 15:42:51;;;;;;;;;0.00;0.00;;;;;;;;4981069;28;112952;-70
2021/11/08 15:45:17;;;;;;;;;0.00;0.00;;;;;;;;4981618;28;111835;-70
2021/11/08 15:47:42;;;;;;;;;0.00;0.00;;;;;;;;4985376;28;112302;-71
2021/11/08 15:50:08;;;;;;;;;0.00;0.00;;;;;;;;4975601;28;112529;-70
2021/11/08 15:52:33;;;;;;;;;0.00;0.00;;;;;;;;4964280;28;113447;-71
2021/11/08 15:54:59;;;;;;;;;1.00;0.00;;;;;;;;4961838;28;112290;-71
2021/11/08 15:57:24;;;;;;;;;0.00;0.00;;;;;;;;4961961;28;112427;-71
2021/11/08 15:59:52;;;;;;;;;0.00;0.00;;;;;;;;4962486;28;112114;-72
2021/11/08 16:02:19;;;;;;;;;0.00;0.00;;;;;;;;4972095;28;113928;-70
2021/11/08 16:04:44;;;;;;;;;0.00;0.00;;;;;;;;4980433;28;112038;-71
2021/11/08 16:07:09;;;;;;;;;0.00;0.00;;;;;;;;4981805;28;112105;-70
2021/11/08 16:09:34;;;;;;;;;0.00;0.00;;;;;;;;4984098;28;113240;-72
2021/11/08 16:12:00;;;;;;;;;0.00;0.00;;;;;;;;4981442;28;112344;-70
2021/11/08 16:14:25;;;;;;;;;0.00;0.00;;;;;;;;4980290;28;113048;-74